sensor_id;sensor_type;location;lat;lon;timestamp;temperature;humidity
563;DHT22;266;49.514;8.294;2023-05-01T00:02:24;12.00;99.90
563;DHT22;266;49.514;8.294;2023-05-01T00:04:52;12.00;99.90
563;DHT22;266;49.514;8.294;2023-05-01T00:07:20;12.00;99.90
563;DHT22;266;49.514;8.294;2023-05-01T00:09:49;12.00;99.90
563;DHT22;266;49.514;8.294;2023-05-01T00:12:19;11.90;99.90
563;DHT22;266;49.514;8.294;2023-05-01T00:14:49;11.90;99.90
563;DHT22;266;49.514;8.294;2023-05-01T00:17:17;11.90;99.90
563;DHT22;266;49.514;8.294;2023-05-01T00:19:45;11.80;99.90
563;DHT22;266;49.514;8.294;2023-05-01T00:22:12;11.80;99.90
563;DHT22;266;49.514;8.294;2023-05-01T00:24:40;11.80;99.90
563;DHT22;266;49.514;8.294;2023-05-01T00:27:08;11.80;99.90
563;DHT22;266;49.514;8.294;2023-05-01T00:29:37;11.70;99.90
563;DHT22;266;49.514;8.294;2023-05-01T00:32:05;11.70;99.90
563;DHT22;266;49.514;8.294;2023-05-01T00:34:33;11.70;99.90
563;DHT22;266;49.514;8.294;2023-05-01T00:37:01;11.70;99.90
563;DHT22;266;49.514;8.294;2023-05-01T00:39:29;11.60;99.90
563;DHT22;266;49.514;8.294;2023-05-01T00:41:57;11.60;99.90
563;DHT22;266;49.514;8.294;2023-05-01T00:44:25;11.60;99.90
563;DHT22;266;49.514;8.294;2023-05-01T00:46:54;11.60;99.90
563;DHT22;266;49.514;8.294;2023-05-01T00:49:26;11.60;99.90
563;DHT22;266;49.514;8.294;2023-05-01T00:51:53;11.60;99.90
563;DHT22;266;49.514;8.294;2023-05-01T00:54:22;11.60;99.90
563;DHT22;266;49.514;8.294;2023-05-01T00:56:51;11.60;99.90
563;DHT22;266;49.514;8.294;2023-05-01T00:59:19;11.50;99.90
563;DHT22;266;49.514;8.294;2023-05-01T01:01:47;11.50;99.90
563;DHT22;266;49.514;8.294;2023-05-01T01:04:19;11.50;99.90
563;DHT22;266;49.514;8.294;2023-05-01T01:06:54;11.50;99.90
563;DHT22;266;49.514;8.294;2023-05-01T01:12:15;11.50;99.90
563;DHT22;266;49.514;8.294;2023-05-01T01:14:52;11.50;99.90
563;DHT22;266;49.514;8.294;2023-05-01T01:17:26;11.40;99.90
563;DHT22;266;49.514;8.294;2023-05-01T01:20:29;11.40;99.90
563;DHT22;266;49.514;8.294;2023-05-01T01:23:19;11.40;99.90
563;DHT22;266;49.514;8.294;2023-05-01T01:26:10;11.40;99.90
563;DHT22;266;49.514;8.294;2023-05-01T01:29:09;11.40;99.90
563;DHT22;266;49.514;8.294;2023-05-01T01:31:53;11.30;99.90
563;DHT22;266;49.514;8.294;2023-05-01T01:34:27;11.30;99.90
563;DHT22;266;49.514;8.294;2023-05-01T01:37:02;11.30;99.90
563;DHT22;266;49.514;8.294;2023-05-01T01:39:39;11.20;99.90
563;DHT22;266;49.514;8.294;2023-05-01T01:42:17;11.10;99.90
563;DHT22;266;49.514;8.294;2023-05-01T01:44:49;11.10;99.90
563;DHT22;266;49.514;8.294;2023-05-01T01:47:19;11.20;99.90
563;DHT22;266;49.514;8.294;2023-05-01T01:49:51;11.00;99.90
563;DHT22;266;49.514;8.294;2023-05-01T01:52:23;11.00;99.90
563;DHT22;266;49.514;8.294;2023-05-01T01:55:04;11.00;99.90
563;DHT22;266;49.514;8.294;2023-05-01T01:57:35;11.00;99.90
563;DHT22;266;49.514;8.294;2023-05-01T02:00:06;11.00;99.90
563;DHT22;266;49.514;8.294;2023-05-01T02:02:38;11.00;99.90
563;DHT22;266;49.514;8.294;2023-05-01T02:05:10;11.00;99.90
563;DHT22;266;49.514;8.294;2023-05-01T02:07:41;11.00;99.90
563;DHT22;266;49.514;8.294;2023-05-01T02:10:12;11.00;99.90
563;DHT22;266;49.514;8.294;2023-05-01T02:12:41;11.00;99.90
563;DHT22;266;49.514;8.294;2023-05-01T02:15:09;11.00;99.90
563;DHT22;266;49.514;8.294;2023-05-01T02:17:40;11.00;99.90
563;DHT22;266;49.514;8.294;2023-05-01T02:20:11;11.00;99.90
563;DHT22;266;49.514;8.294;2023-05-01T02:22:43;11.00;99.90
563;DHT22;266;49.514;8.294;2023-05-01T02:25:12;11.00;99.90
563;DHT22;266;49.514;8.294;2023-05-01T02:27:46;11.00;99.90
563;DHT22;266;49.514;8.294;2023-05-01T02:30:14;11.00;99.90
563;DHT22;266;49.514;8.294;2023-05-01T02:32:42;11.00;99.90
563;DHT22;266;49.514;8.294;2023-05-01T02:35:12;10.90;99.90
563;DHT22;266;49.514;8.294;2023-05-01T02:37:40;10.90;99.90
563;DHT22;266;49.514;8.294;2023-05-01T02:40:10;10.90;99.90
563;DHT22;266;49.514;8.294;2023-05-01T02:42:40;10.90;99.90
563;DHT22;266;49.514;8.294;2023-05-01T02:45:20;10.90;99.90
563;DHT22;266;49.514;8.294;2023-05-01T02:47:50;10.90;99.90
563;DHT22;266;49.514;8.294;2023-05-01T02:50:21;10.90;99.90
563;DHT22;266;49.514;8.294;2023-05-01T02:52:50;10.90;99.90
563;DHT22;266;49.514;8.294;2023-05-01T02:55:18;10.90;99.90
563;DHT22;266;49.514;8.294;2023-05-01T02:57:46;10.90;99.90
563;DHT22;266;49.514;8.294;2023-05-01T03:00:17;10.90;99.90
563;DHT22;266;49.514;8.294;2023-05-01T03:02:45;10.90;99.90
563;DHT22;266;49.514;8.294;2023-05-01T03:05:13;10.90;99.90
563;DHT22;266;49.514;8.294;2023-05-01T03:07:43;10.90;99.90
563;DHT22;266;49.514;8.294;2023-05-01T03:10:12;10.90;99.90
563;DHT22;266;49.514;8.294;2023-05-01T03:12:40;10.90;99.90
563;DHT22;266;49.514;8.294;2023-05-01T03:15:09;10.90;99.90
563;DHT22;266;49.514;8.294;2023-05-01T03:17:37;10.90;99.90
563;DHT22;266;49.514;8.294;2023-05-01T03:20:06;10.90;99.90
563;DHT22;266;49.514;8.294;2023-05-01T03:22:35;10.90;99.90
563;DHT22;266;49.514;8.294;2023-05-01T03:25:05;10.90;99.90
563;DHT22;266;49.514;8.294;2023-05-01T03:27:33;10.90;99.90
563;DHT22;266;49.514;8.294;2023-05-01T03:30:01;10.90;99.90
563;DHT22;266;49.514;8.294;2023-05-01T03:32:30;10.90;99.90
563;DHT22;266;49.514;8.294;2023-05-01T03:34:58;10.90;99.90
563;DHT22;266;49.514;8.294;2023-05-01T03:37:27;10.80;99.90
563;DHT22;266;49.514;8.294;2023-05-01T03:39:55;10.80;99.90
563;DHT22;266;49.514;8.294;2023-05-01T03:42:24;10.80;99.90
563;DHT22;266;49.514;8.294;2023-05-01T03:44:52;10.80;99.90
563;DHT22;266;49.514;8.294;2023-05-01T03:47:20;10.80;99.90
563;DHT22;266;49.514;8.294;2023-05-01T03:49:49;10.80;99.90
563;DHT22;266;49.514;8.294;2023-05-01T03:52:17;10.80;99.90
563;DHT22;266;49.514;8.294;2023-05-01T03:54:45;10.80;99.90
563;DHT22;266;49.514;8.294;2023-05-01T03:57:13;10.80;99.90
563;DHT22;266;49.514;8.294;2023-05-01T03:59:42;10.80;99.90
563;DHT22;266;49.514;8.294;2023-05-01T04:02:10;10.80;99.90
563;DHT22;266;49.514;8.294;2023-05-01T04:04:38;10.80;99.90
563;DHT22;266;49.514;8.294;2023-05-01T04:07:06;10.90;99.90
563;DHT22;266;49.514;8.294;2023-05-01T04:09:35;10.70;99.90
563;DHT22;266;49.514;8.294;2023-05-01T04:12:03;10.70;99.90
563;DHT22;266;49.514;8.294;2023-05-01T04:14:31;10.70;99.90
563;DHT22;266;49.514;8.294;2023-05-01T04:17:00;10.60;99.90
563;DHT22;266;49.514;8.294;2023-05-01T04:19:28;10.60;99.90
563;DHT22;266;49.514;8.294;2023-05-01T04:21:56;10.60;99.90
563;DHT22;266;49.514;8.294;2023-05-01T04:24:27;10.60;99.90
563;DHT22;266;49.514;8.294;2023-05-01T04:26:56;10.60;99.90
563;DHT22;266;49.514;8.294;2023-05-01T04:29:24;10.60;99.90
563;DHT22;266;49.514;8.294;2023-05-01T04:31:52;10.60;99.90
563;DHT22;266;49.514;8.294;2023-05-01T04:34:21;10.70;99.90
563;DHT22;266;49.514;8.294;2023-05-01T04:36:49;10.70;99.90
563;DHT22;266;49.514;8.294;2023-05-01T04:39:17;10.70;99.90
563;DHT22;266;49.514;8.294;2023-05-01T04:41:46;10.70;99.90
563;DHT22;266;49.514;8.294;2023-05-01T04:44:13;10.70;99.90
563;DHT22;266;49.514;8.294;2023-05-01T04:46:42;10.70;99.90
563;DHT22;266;49.514;8.294;2023-05-01T04:49:10;10.70;99.90
563;DHT22;266;49.514;8.294;2023-05-01T04:51:39;10.70;99.90
563;DHT22;266;49.514;8.294;2023-05-01T04:54:07;10.70;99.90
563;DHT22;266;49.514;8.294;2023-05-01T04:56:35;10.70;99.90
563;DHT22;266;49.514;8.294;2023-05-01T04:59:02;10.70;99.90
563;DHT22;266;49.514;8.294;2023-05-01T05:01:30;10.80;99.90
563;DHT22;266;49.514;8.294;2023-05-01T05:03:58;10.80;99.90
563;DHT22;266;49.514;8.294;2023-05-01T05:06:27;10.80;99.90
563;DHT22;266;49.514;8.294;2023-05-01T05:08:56;10.80;99.90
563;DHT22;266;49.514;8.294;2023-05-01T05:11:24;10.80;99.90
563;DHT22;266;49.514;8.294;2023-05-01T05:13:52;10.90;99.90
563;DHT22;266;49.514;8.294;2023-05-01T05:16:20;10.90;99.90
563;DHT22;266;49.514;8.294;2023-05-01T05:18:48;10.90;99.90
563;DHT22;266;49.514;8.294;2023-05-01T05:21:16;10.90;99.90
563;DHT22;266;49.514;8.294;2023-05-01T05:23:44;10.90;99.90
563;DHT22;266;49.514;8.294;2023-05-01T05:26:14;11.00;99.90
563;DHT22;266;49.514;8.294;2023-05-01T05:28:42;11.00;99.90
563;DHT22;266;49.514;8.294;2023-05-01T05:31:10;11.00;99.90
563;DHT22;266;49.514;8.294;2023-05-01T05:33:38;11.10;99.90
563;DHT22;266;49.514;8.294;2023-05-01T05:36:06;11.10;99.90
563;DHT22;266;49.514;8.294;2023-05-01T05:38:34;11.20;99.90
563;DHT22;266;49.514;8.294;2023-05-01T05:41:02;11.30;99.90
563;DHT22;266;49.514;8.294;2023-05-01T05:43:31;11.30;99.90
563;DHT22;266;49.514;8.294;2023-05-01T05:45:59;11.40;99.90
563;DHT22;266;49.514;8.294;2023-05-01T05:48:28;11.40;99.90
563;DHT22;266;49.514;8.294;2023-05-01T05:50:56;11.40;99.90
563;DHT22;266;49.514;8.294;2023-05-01T05:53:27;11.40;99.90
563;DHT22;266;49.514;8.294;2023-05-01T05:55:58;11.50;99.90
563;DHT22;266;49.514;8.294;2023-05-01T05:58:32;11.50;99.90
563;DHT22;266;49.514;8.294;2023-05-01T06:01:07;11.50;99.90
563;DHT22;266;49.514;8.294;2023-05-01T06:03:35;11.60;99.90
563;DHT22;266;49.514;8.294;2023-05-01T06:06:08;11.70;99.90
563;DHT22;266;49.514;8.294;2023-05-01T06:08:36;11.80;99.90
563;DHT22;266;49.514;8.294;2023-05-01T06:11:07;11.90;99.90
563;DHT22;266;49.514;8.294;2023-05-01T06:13:36;11.90;99.90
563;DHT22;266;49.514;8.294;2023-05-01T06:16:05;11.90;99.90
563;DHT22;266;49.514;8.294;2023-05-01T06:18:34;12.00;99.90
563;DHT22;266;49.514;8.294;2023-05-01T06:21:02;12.00;99.90
563;DHT22;266;49.514;8.294;2023-05-01T06:23:30;12.10;99.90
563;DHT22;266;49.514;8.294;2023-05-01T06:25:59;12.10;99.90
563;DHT22;266;49.514;8.294;2023-05-01T06:28:31;12.10;99.90
563;DHT22;266;49.514;8.294;2023-05-01T06:31:01;12.10;99.90
563;DHT22;266;49.514;8.294;2023-05-01T06:33:29;12.20;99.90
563;DHT22;266;49.514;8.294;2023-05-01T06:35:57;12.20;99.90
563;DHT22;266;49.514;8.294;2023-05-01T06:38:25;12.30;99.90
563;DHT22;266;49.514;8.294;2023-05-01T06:40:53;12.40;99.90
563;DHT22;266;49.514;8.294;2023-05-01T06:43:22;12.40;99.90
563;DHT22;266;49.514;8.294;2023-05-01T06:45:53;12.50;99.90
563;DHT22;266;49.514;8.294;2023-05-01T06:48:22;12.50;99.90
563;DHT22;266;49.514;8.294;2023-05-01T06:50:50;12.70;99.90
563;DHT22;266;49.514;8.294;2023-05-01T06:53:18;12.80;99.90
563;DHT22;266;49.514;8.294;2023-05-01T06:55:46;13.00;99.90
563;DHT22;266;49.514;8.294;2023-05-01T06:58:14;13.10;99.90
563;DHT22;266;49.514;8.294;2023-05-01T07:00:48;13.30;99.90
563;DHT22;266;49.514;8.294;2023-05-01T07:03:16;13.40;99.90
563;DHT22;266;49.514;8.294;2023-05-01T07:05:46;13.50;99.90
563;DHT22;266;49.514;8.294;2023-05-01T07:08:16;13.60;99.90
563;DHT22;266;49.514;8.294;2023-05-01T07:10:46;13.80;99.90
563;DHT22;266;49.514;8.294;2023-05-01T07:13:15;13.90;99.90
563;DHT22;266;49.514;8.294;2023-05-01T07:15:43;14.00;99.90
563;DHT22;266;49.514;8.294;2023-05-01T07:18:12;14.10;99.90
563;DHT22;266;49.514;8.294;2023-05-01T07:20:40;14.20;99.90
563;DHT22;266;49.514;8.294;2023-05-01T07:23:09;14.40;99.90
563;DHT22;266;49.514;8.294;2023-05-01T07:25:37;14.60;99.90
563;DHT22;266;49.514;8.294;2023-05-01T07:28:06;14.70;99.90
563;DHT22;266;49.514;8.294;2023-05-01T07:30:35;14.80;99.90
563;DHT22;266;49.514;8.294;2023-05-01T07:33:03;14.80;99.90
563;DHT22;266;49.514;8.294;2023-05-01T07:35:32;14.80;99.90
563;DHT22;266;49.514;8.294;2023-05-01T07:38:00;14.90;99.90
563;DHT22;266;49.514;8.294;2023-05-01T07:40:31;15.00;99.90
563;DHT22;266;49.514;8.294;2023-05-01T07:42:59;15.00;99.90
563;DHT22;266;49.514;8.294;2023-05-01T07:45:27;15.10;99.90
563;DHT22;266;49.514;8.294;2023-05-01T07:47:55;15.30;99.90
563;DHT22;266;49.514;8.294;2023-05-01T07:50:23;15.40;99.90
563;DHT22;266;49.514;8.294;2023-05-01T07:52:51;15.60;99.90
563;DHT22;266;49.514;8.294;2023-05-01T07:55:20;15.70;99.90
563;DHT22;266;49.514;8.294;2023-05-01T07:57:50;15.70;99.90
563;DHT22;266;49.514;8.294;2023-05-01T08:00:18;15.90;99.90
563;DHT22;266;49.514;8.294;2023-05-01T08:02:46;16.00;99.90
563;DHT22;266;49.514;8.294;2023-05-01T08:05:14;16.20;99.90
563;DHT22;266;49.514;8.294;2023-05-01T08:07:42;16.30;99.90
563;DHT22;266;49.514;8.294;2023-05-01T08:10:10;16.50;99.90
563;DHT22;266;49.514;8.294;2023-05-01T08:12:38;16.60;99.90
563;DHT22;266;49.514;8.294;2023-05-01T08:15:08;16.70;99.90
563;DHT22;266;49.514;8.294;2023-05-01T08:17:36;16.90;99.90
563;DHT22;266;49.514;8.294;2023-05-01T08:20:05;17.20;99.90
563;DHT22;266;49.514;8.294;2023-05-01T08:22:33;17.30;99.90
563;DHT22;266;49.514;8.294;2023-05-01T08:25:01;17.60;99.90
563;DHT22;266;49.514;8.294;2023-05-01T08:27:30;18.10;99.90
563;DHT22;266;49.514;8.294;2023-05-01T08:29:59;18.40;99.90
563;DHT22;266;49.514;8.294;2023-05-01T08:32:29;18.30;99.90
563;DHT22;266;49.514;8.294;2023-05-01T08:34:57;18.30;99.90
563;DHT22;266;49.514;8.294;2023-05-01T08:37:25;18.30;99.90
563;DHT22;266;49.514;8.294;2023-05-01T08:39:53;18.40;99.90
563;DHT22;266;49.514;8.294;2023-05-01T08:42:22;18.40;99.90
563;DHT22;266;49.514;8.294;2023-05-01T08:44:52;18.20;99.90
563;DHT22;266;49.514;8.294;2023-05-01T08:47:21;18.10;99.90
563;DHT22;266;49.514;8.294;2023-05-01T08:49:51;17.60;99.90
563;DHT22;266;49.514;8.294;2023-05-01T08:52:21;17.30;99.90
563;DHT22;266;49.514;8.294;2023-05-01T08:54:49;17.00;99.90
563;DHT22;266;49.514;8.294;2023-05-01T08:57:20;16.80;99.90
563;DHT22;266;49.514;8.294;2023-05-01T08:59:49;16.50;99.90
563;DHT22;266;49.514;8.294;2023-05-01T09:02:20;16.30;99.90
563;DHT22;266;49.514;8.294;2023-05-01T09:04:52;16.20;99.90
563;DHT22;266;49.514;8.294;2023-05-01T09:07:20;16.10;99.90
563;DHT22;266;49.514;8.294;2023-05-01T09:09:48;16.10;99.90
563;DHT22;266;49.514;8.294;2023-05-01T09:12:21;16.20;99.90
563;DHT22;266;49.514;8.294;2023-05-01T09:14:50;16.50;99.90
563;DHT22;266;49.514;8.294;2023-05-01T09:17:19;16.70;99.90
563;DHT22;266;49.514;8.294;2023-05-01T09:19:48;16.90;99.90
563;DHT22;266;49.514;8.294;2023-05-01T09:22:18;17.10;99.90
563;DHT22;266;49.514;8.294;2023-05-01T09:24:46;17.50;99.90
563;DHT22;266;49.514;8.294;2023-05-01T09:27:14;17.80;99.90
563;DHT22;266;49.514;8.294;2023-05-01T09:29:44;17.90;99.90
563;DHT22;266;49.514;8.294;2023-05-01T09:32:14;18.20;99.90
563;DHT22;266;49.514;8.294;2023-05-01T09:34:43;18.40;99.90
563;DHT22;266;49.514;8.294;2023-05-01T09:37:13;18.60;99.90
563;DHT22;266;49.514;8.294;2023-05-01T09:40:05;18.50;99.90
563;DHT22;266;49.514;8.294;2023-05-01T09:42:35;18.40;99.90
563;DHT22;266;49.514;8.294;2023-05-01T09:45:10;18.50;99.90
563;DHT22;266;49.514;8.294;2023-05-01T09:47:38;18.80;99.90
563;DHT22;266;49.514;8.294;2023-05-01T09:50:08;18.80;99.90
563;DHT22;266;49.514;8.294;2023-05-01T09:52:36;18.70;99.90
563;DHT22;266;49.514;8.294;2023-05-01T09:55:13;18.80;99.90
563;DHT22;266;49.514;8.294;2023-05-01T09:57:42;19.00;99.90
563;DHT22;266;49.514;8.294;2023-05-01T10:00:11;19.20;99.90
563;DHT22;266;49.514;8.294;2023-05-01T10:02:42;19.50;99.90
563;DHT22;266;49.514;8.294;2023-05-01T10:05:11;19.50;99.90
563;DHT22;266;49.514;8.294;2023-05-01T10:07:40;19.90;99.90
563;DHT22;266;49.514;8.294;2023-05-01T10:10:22;20.70;99.90
563;DHT22;266;49.514;8.294;2023-05-01T10:12:51;21.10;99.90
563;DHT22;266;49.514;8.294;2023-05-01T10:15:19;20.40;99.90
563;DHT22;266;49.514;8.294;2023-05-01T10:17:52;19.80;99.90
563;DHT22;266;49.514;8.294;2023-05-01T10:20:21;19.50;99.90
563;DHT22;266;49.514;8.294;2023-05-01T10:22:49;19.30;99.90
563;DHT22;266;49.514;8.294;2023-05-01T10:25:17;19.20;99.90
563;DHT22;266;49.514;8.294;2023-05-01T10:27:49;19.40;99.90
563;DHT22;266;49.514;8.294;2023-05-01T10:30:19;19.80;99.90
563;DHT22;266;49.514;8.294;2023-05-01T10:32:48;19.70;99.90
563;DHT22;266;49.514;8.294;2023-05-01T10:35:20;19.30;99.90
563;DHT22;266;49.514;8.294;2023-05-01T10:37:55;19.20;99.90
563;DHT22;266;49.514;8.294;2023-05-01T10:40:45;19.00;99.90
563;DHT22;266;49.514;8.294;2023-05-01T10:43:17;19.10;99.90
563;DHT22;266;49.514;8.294;2023-05-01T10:45:46;19.10;99.90
563;DHT22;266;49.514;8.294;2023-05-01T10:51:17;19.20;99.90
563;DHT22;266;49.514;8.294;2023-05-01T10:53:47;19.30;99.90
563;DHT22;266;49.514;8.294;2023-05-01T10:56:40;19.30;99.90
563;DHT22;266;49.514;8.294;2023-05-01T10:59:11;19.30;99.90
563;DHT22;266;49.514;8.294;2023-05-01T11:01:39;19.60;99.90
563;DHT22;266;49.514;8.294;2023-05-01T11:04:47;19.80;99.90
563;DHT22;266;49.514;8.294;2023-05-01T11:07:17;19.90;99.90
563;DHT22;266;49.514;8.294;2023-05-01T11:09:46;19.80;99.90
563;DHT22;266;49.514;8.294;2023-05-01T11:12:48;19.60;99.90
563;DHT22;266;49.514;8.294;2023-05-01T11:15:32;19.50;99.90
563;DHT22;266;49.514;8.294;2023-05-01T11:18:00;19.30;99.90
563;DHT22;266;49.514;8.294;2023-05-01T11:20:48;19.20;99.90
563;DHT22;266;49.514;8.294;2023-05-01T11:23:17;19.40;99.90
563;DHT22;266;49.514;8.294;2023-05-01T11:25:46;19.30;99.90
563;DHT22;266;49.514;8.294;2023-05-01T11:28:19;19.30;99.90
563;DHT22;266;49.514;8.294;2023-05-01T11:30:52;19.40;99.90
563;DHT22;266;49.514;8.294;2023-05-01T11:33:23;19.50;99.90
563;DHT22;266;49.514;8.294;2023-05-01T11:35:59;19.70;99.90
563;DHT22;266;49.514;8.294;2023-05-01T11:38:28;19.80;99.90
563;DHT22;266;49.514;8.294;2023-05-01T11:41:00;19.70;99.90
563;DHT22;266;49.514;8.294;2023-05-01T11:43:30;19.60;99.90
563;DHT22;266;49.514;8.294;2023-05-01T11:46:00;19.60;99.90
563;DHT22;266;49.514;8.294;2023-05-01T11:48:31;19.50;99.90
563;DHT22;266;49.514;8.294;2023-05-01T11:50:59;19.30;99.90
563;DHT22;266;49.514;8.294;2023-05-01T11:53:27;19.30;99.90
563;DHT22;266;49.514;8.294;2023-05-01T11:55:55;19.00;99.90
563;DHT22;266;49.514;8.294;2023-05-01T11:58:32;18.70;99.90
563;DHT22;266;49.514;8.294;2023-05-01T12:01:04;18.80;99.90
563;DHT22;266;49.514;8.294;2023-05-01T12:03:43;18.90;99.90
563;DHT22;266;49.514;8.294;2023-05-01T12:06:12;19.00;99.90
563;DHT22;266;49.514;8.294;2023-05-01T12:08:47;18.90;99.90
563;DHT22;266;49.514;8.294;2023-05-01T12:11:16;18.80;99.90
563;DHT22;266;49.514;8.294;2023-05-01T12:13:46;18.60;99.90
563;DHT22;266;49.514;8.294;2023-05-01T12:16:17;18.50;99.90
563;DHT22;266;49.514;8.294;2023-05-01T12:18:45;18.50;99.90
563;DHT22;266;49.514;8.294;2023-05-01T12:21:14;18.60;99.90
563;DHT22;266;49.514;8.294;2023-05-01T12:23:43;18.80;99.90
563;DHT22;266;49.514;8.294;2023-05-01T12:26:15;19.10;99.90
563;DHT22;266;49.514;8.294;2023-05-01T12:28:56;19.20;99.90
563;DHT22;266;49.514;8.294;2023-05-01T12:31:27;19.50;99.90
563;DHT22;266;49.514;8.294;2023-05-01T12:33:56;20.00;99.90
563;DHT22;266;49.514;8.294;2023-05-01T12:36:26;20.50;99.90
563;DHT22;266;49.514;8.294;2023-05-01T12:38:56;20.80;99.90
563;DHT22;266;49.514;8.294;2023-05-01T12:41:38;20.40;99.90
563;DHT22;266;49.514;8.294;2023-05-01T12:44:17;20.50;99.90
563;DHT22;266;49.514;8.294;2023-05-01T12:46:53;20.20;99.90
563;DHT22;266;49.514;8.294;2023-05-01T12:49:22;19.70;99.90
563;DHT22;266;49.514;8.294;2023-05-01T12:51:51;19.40;99.90
563;DHT22;266;49.514;8.294;2023-05-01T12:54:20;19.40;99.90
563;DHT22;266;49.514;8.294;2023-05-01T12:56:48;19.30;99.90
563;DHT22;266;49.514;8.294;2023-05-01T12:59:23;19.00;99.90
563;DHT22;266;49.514;8.294;2023-05-01T13:02:01;18.70;99.90
563;DHT22;266;49.514;8.294;2023-05-01T13:04:30;18.70;99.90
563;DHT22;266;49.514;8.294;2023-05-01T13:06:58;18.70;99.90
563;DHT22;266;49.514;8.294;2023-05-01T13:09:28;18.80;99.90
563;DHT22;266;49.514;8.294;2023-05-01T13:11:58;18.70;99.90
563;DHT22;266;49.514;8.294;2023-05-01T13:14:28;18.50;99.90
563;DHT22;266;49.514;8.294;2023-05-01T13:16:58;18.30;99.90
563;DHT22;266;49.514;8.294;2023-05-01T13:19:27;18.30;99.90
563;DHT22;266;49.514;8.294;2023-05-01T13:21:56;18.30;99.90
563;DHT22;266;49.514;8.294;2023-05-01T13:24:25;18.50;99.90
563;DHT22;266;49.514;8.294;2023-05-01T13:27:02;18.70;99.90
563;DHT22;266;49.514;8.294;2023-05-01T13:29:31;19.10;99.90
563;DHT22;266;49.514;8.294;2023-05-01T13:32:02;19.30;99.90
563;DHT22;266;49.514;8.294;2023-05-01T13:34:32;19.50;99.90
563;DHT22;266;49.514;8.294;2023-05-01T13:37:01;19.70;99.90
563;DHT22;266;49.514;8.294;2023-05-01T13:39:29;19.70;99.90
563;DHT22;266;49.514;8.294;2023-05-01T13:41:57;19.80;99.90
563;DHT22;266;49.514;8.294;2023-05-01T13:44:25;19.90;99.90
563;DHT22;266;49.514;8.294;2023-05-01T13:46:54;20.40;99.90
563;DHT22;266;49.514;8.294;2023-05-01T13:49:23;21.10;99.90
563;DHT22;266;49.514;8.294;2023-05-01T13:51:52;21.60;99.90
563;DHT22;266;49.514;8.294;2023-05-01T13:54:21;21.80;99.90
563;DHT22;266;49.514;8.294;2023-05-01T13:56:49;21.70;99.90
563;DHT22;266;49.514;8.294;2023-05-01T13:59:18;21.00;99.90
563;DHT22;266;49.514;8.294;2023-05-01T14:01:46;20.40;99.90
563;DHT22;266;49.514;8.294;2023-05-01T14:04:16;20.00;99.90
563;DHT22;266;49.514;8.294;2023-05-01T14:06:48;19.90;99.90
563;DHT22;266;49.514;8.294;2023-05-01T14:09:16;19.80;99.90
563;DHT22;266;49.514;8.294;2023-05-01T14:11:46;19.80;99.90
563;DHT22;266;49.514;8.294;2023-05-01T14:14:15;19.90;99.90
563;DHT22;266;49.514;8.294;2023-05-01T14:16:46;19.90;99.90
563;DHT22;266;49.514;8.294;2023-05-01T14:19:15;19.70;99.90
563;DHT22;266;49.514;8.294;2023-05-01T14:21:44;19.60;99.90
563;DHT22;266;49.514;8.294;2023-05-01T14:24:14;19.70;99.90
563;DHT22;266;49.514;8.294;2023-05-01T14:26:44;19.70;99.90
563;DHT22;266;49.514;8.294;2023-05-01T14:29:21;19.60;99.90
563;DHT22;266;49.514;8.294;2023-05-01T14:31:49;19.50;99.90
563;DHT22;266;49.514;8.294;2023-05-01T14:34:18;19.40;99.90
563;DHT22;266;49.514;8.294;2023-05-01T14:36:47;19.30;99.90
563;DHT22;266;49.514;8.294;2023-05-01T14:39:17;19.30;99.90
563;DHT22;266;49.514;8.294;2023-05-01T14:41:46;19.40;99.90
563;DHT22;266;49.514;8.294;2023-05-01T14:44:17;19.40;99.90
563;DHT22;266;49.514;8.294;2023-05-01T14:46:46;19.30;99.90
563;DHT22;266;49.514;8.294;2023-05-01T14:49:18;19.20;99.90
563;DHT22;266;49.514;8.294;2023-05-01T14:51:47;19.10;99.90
563;DHT22;266;49.514;8.294;2023-05-01T14:54:16;19.10;99.90
563;DHT22;266;49.514;8.294;2023-05-01T14:56:46;19.20;99.90
563;DHT22;266;49.514;8.294;2023-05-01T14:59:14;19.30;99.90
563;DHT22;266;49.514;8.294;2023-05-01T15:01:43;19.40;99.90
563;DHT22;266;49.514;8.294;2023-05-01T15:04:11;19.50;99.90
563;DHT22;266;49.514;8.294;2023-05-01T15:06:39;19.60;99.90
563;DHT22;266;49.514;8.294;2023-05-01T15:09:08;19.80;99.90
563;DHT22;266;49.514;8.294;2023-05-01T15:11:37;20.00;99.90
563;DHT22;266;49.514;8.294;2023-05-01T15:14:05;20.20;99.90
563;DHT22;266;49.514;8.294;2023-05-01T15:16:33;20.60;99.90
563;DHT22;266;49.514;8.294;2023-05-01T15:19:01;20.80;99.90
563;DHT22;266;49.514;8.294;2023-05-01T15:21:29;20.80;99.90
563;DHT22;266;49.514;8.294;2023-05-01T15:23:59;20.80;99.90
563;DHT22;266;49.514;8.294;2023-05-01T15:26:30;20.70;99.90
563;DHT22;266;49.514;8.294;2023-05-01T15:28:59;20.70;99.90
563;DHT22;266;49.514;8.294;2023-05-01T15:31:27;20.80;99.90
563;DHT22;266;49.514;8.294;2023-05-01T15:33:56;20.90;99.90
563;DHT22;266;49.514;8.294;2023-05-01T15:36:24;21.30;99.90
563;DHT22;266;49.514;8.294;2023-05-01T15:38:52;21.50;99.90
563;DHT22;266;49.514;8.294;2023-05-01T15:41:20;21.50;99.90
563;DHT22;266;49.514;8.294;2023-05-01T15:43:48;21.40;99.90
563;DHT22;266;49.514;8.294;2023-05-01T15:46:19;21.40;99.90
563;DHT22;266;49.514;8.294;2023-05-01T15:48:49;21.20;99.90
563;DHT22;266;49.514;8.294;2023-05-01T15:51:17;21.10;99.90
563;DHT22;266;49.514;8.294;2023-05-01T15:53:45;21.20;99.90
563;DHT22;266;49.514;8.294;2023-05-01T15:56:13;21.50;99.90
563;DHT22;266;49.514;8.294;2023-05-01T15:58:41;21.70;99.90
563;DHT22;266;49.514;8.294;2023-05-01T16:01:11;21.70;99.90
563;DHT22;266;49.514;8.294;2023-05-01T16:03:44;21.40;99.90
563;DHT22;266;49.514;8.294;2023-05-01T16:06:13;21.00;99.90
563;DHT22;266;49.514;8.294;2023-05-01T16:08:41;20.90;99.90
563;DHT22;266;49.514;8.294;2023-05-01T16:11:09;20.80;99.90
563;DHT22;266;49.514;8.294;2023-05-01T16:13:40;20.90;99.90
563;DHT22;266;49.514;8.294;2023-05-01T16:16:09;21.10;99.90
563;DHT22;266;49.514;8.294;2023-05-01T16:18:40;21.40;99.90
563;DHT22;266;49.514;8.294;2023-05-01T16:21:08;21.60;99.90
563;DHT22;266;49.514;8.294;2023-05-01T16:23:37;21.60;99.90
563;DHT22;266;49.514;8.294;2023-05-01T16:26:05;21.70;99.90
563;DHT22;266;49.514;8.294;2023-05-01T16:28:33;21.60;99.90
563;DHT22;266;49.514;8.294;2023-05-01T16:31:01;21.50;99.90
563;DHT22;266;49.514;8.294;2023-05-01T16:33:43;21.20;99.90
563;DHT22;266;49.514;8.294;2023-05-01T16:36:14;21.00;99.90
563;DHT22;266;49.514;8.294;2023-05-01T16:38:43;20.80;99.90
563;DHT22;266;49.514;8.294;2023-05-01T16:41:16;20.80;99.90
563;DHT22;266;49.514;8.294;2023-05-01T16:43:44;20.70;99.90
563;DHT22;266;49.514;8.294;2023-05-01T16:46:14;20.50;99.90
563;DHT22;266;49.514;8.294;2023-05-01T16:48:44;20.30;99.90
563;DHT22;266;49.514;8.294;2023-05-01T16:51:12;20.30;99.90
563;DHT22;266;49.514;8.294;2023-05-01T16:53:40;20.20;99.90
563;DHT22;266;49.514;8.294;2023-05-01T16:56:08;20.00;99.90
563;DHT22;266;49.514;8.294;2023-05-01T16:58:36;20.00;99.90
563;DHT22;266;49.514;8.294;2023-05-01T17:01:04;19.80;99.90